Station: Cairns Racecourse

  Atmospheric Gas Attenuation - ITU Rec 676-11   --------------- db/100km ---------------
Date Time Temp RH % AH g/m3 Dew Point Wind Direction Speed kph Gust kph Barometer mB Rainfall Since 9am 24GHz 47GHz 76GHz 122GHz 134GHz 241GHz
27 02:10 24.7 90 20.37 22.9 6 6 1013.1 4 43.9 42.8 84.1 222.6 247.3 858.9
27 02:00 24.7 90 20.37 22.9 7 9 1013.1 4 43.9 42.8 84.1 222.6 247.3 858.9
27 01:50 24.7 90 20.37 22.9 7 9 1013.1 4 43.9 42.8 84.1 222.6 247.3 858.9
27 01:40 24.8 90 20.49 23 0 0 1013.1 4 44.2 43.0 84.6 223.9 248.9 864.5
27 01:30 25 90 20.72 23.2 6 9 1013.1 4 44.6 43.4 85.5 226.3 251.9 875.0
27 01:20 25.1 89 20.6 23.2 6 7 1013.1 4 44.4 43.1 84.8 224.4 249.6 867.2
27 01:10 25.2 88 20.49 23.1 6 6 1013.1 4 44.1 42.8 84.1 222.7 247.5 859.9
27 01:00 25.2 88 20.49 23.1 6 9 1013.1 4 44.1 42.8 84.1 222.7 247.5 859.9
27 00:50 25.2 88 20.49 23.1 6 6 1013.1 4 44.1 42.8 84.1 222.7 247.5 859.9
27 00:40 25.2 88 20.49 23.1 9 11 1013.1 4 44.1 42.8 84.1 222.7 247.5 859.9
27 00:30 25.1 88 20.37 23 6 7 1013.1 4 43.9 42.6 83.7 221.4 246.0 854.4
27 00:20 25.2 88 20.49 23.1 6 7 1013.1 4 44.1 42.8 84.1 222.7 247.5 859.9
27 00:10 25.4 88 20.72 23.3 7 9 1013.1 4 44.6 43.2 85.1 225.1 250.5 870.4
27 00:00 25.5 88 20.83 23.4 9 13 1013.1 4 44.8 43.3 85.5 226.2 252.0 875.3
26 23:50 25.2 89 20.72 23.3 9 11 1013.1 4 44.6 43.3 85.3 225.7 251.2 872.7
26 23:40 25.2 89 20.72 23.3 9 11 1013.1 4 44.6 43.3 85.3 225.7 251.2 872.7
26 23:30 25.2 90 20.95 23.4 4 7 1013.1 4 45.1 43.7 86.4 228.7 254.9 885.6
26 23:20 25.4 89 20.95 23.5 4 6 1013.1 4 45.1 43.6 86.2 228.1 254.2 883.2
26 23:10 25.4 89 20.95 23.5 6 7 1013.1 4 45.1 43.6 86.2 228.1 254.2 883.2
26 23:00 25.5 89 21.07 23.6 7 9 1013.1 4 45.3 43.8 86.7 229.4 255.8 888.7
26 22:50 25.5 89 21.07 23.6 7 7 1013.1 4 45.3 43.8 86.7 229.4 255.8 888.7
26 22:40 25.6 89 21.19 23.6 7 7 1013.1 4 45.6 44.0 87.1 230.7 257.4 894.3
26 22:30 25.7 89 21.31 23.7 2 6 1013.1 4 45.8 44.2 87.6 231.9 259.0 899.8
26 22:20 25.7 88 21.07 23.6 6 7 1013.1 4 45.3 43.7 86.4 228.8 255.1 886.4
26 22:10 25.9 87 21.06 23.6 7 9 1013.1 4 45.2 43.6 86.2 228.0 254.3 883.5
26 22:00 25.9 86 20.82 23.4 9 15 1013.1 4 44.7 43.1 85.0 224.9 250.5 870.1
26 21:50 26 86 20.94 23.5 11 13 1013.1 4 45.0 43.3 85.4 226.2 252.0 875.6
26 21:40 25.9 87 21.06 23.6 13 15 1013.1 4 45.2 43.6 86.2 228.0 254.3 883.5
26 21:30 25.6 88 20.95 23.5 9 11 1013.1 4 45.0 43.5 86.0 227.5 253.6 880.9
26 21:20 25.7 87 20.83 23.4 7 11 1013.1 4 44.8 43.2 85.2 225.6 251.3 873.0
26 21:10 25.9 86 20.82 23.4 11 13 1013.1 4 44.7 43.1 85.0 224.9 250.5 870.1
26 21:00 25.9 86 20.82 23.4 9 15 1013.1 4 44.7 43.1 85.0 224.9 250.5 870.1
26 20:50 26.1 85 20.81 23.4 7 9 1013.1 4 44.7 43.0 84.7 224.2 249.6 867.2
26 20:40 26 85 20.69 23.3 9 9 1013.1 4 44.4 42.8 84.2 222.9 248.0 861.8
26 20:30 26 85 20.69 23.3 9 13 1013.1 4 44.4 42.8 84.2 222.9 248.0 861.8
26 20:20 26 86 20.94 23.5 7 9 1013.1 4 45.0 43.3 85.4 226.2 252.0 875.6
26 20:10 26.1 85 20.81 23.4 9 11 1013.1 4 44.7 43.0 84.7 224.2 249.6 867.2
26 20:00 26.1 86 21.05 23.6 9 19 1013.1 4 45.2 43.4 85.9 227.3 253.4 880.5
26 19:50 26.3 86 21.29 23.8 9 11 1013.1 4 45.7 43.8 86.8 229.8 256.6 891.5
26 19:40 26.2 87 21.42 23.9 11 13 1013.1 4 46.0 44.1 87.6 231.8 259.0 900.0
26 19:30 26.2 87 21.42 23.9 9 13 1013.1 4 46.0 44.1 87.6 231.8 259.0 900.0
26 19:20 26.2 86 21.17 23.7 13 13 1013.1 4 45.4 43.6 86.3 228.6 255.0 886.0
26 19:10 26.4 85 21.16 23.7 11 15 1013.1 4 45.4 43.5 86.1 227.8 254.2 883.1
26 19:00 26.6 85 21.4 23.9 9 13 1013.1 4 45.9 43.9 87.0 230.3 257.3 894.1
26 18:50 26.8 84 21.38 23.9 9 9 1013.1 4 45.8 43.7 86.7 229.5 256.3 890.6
26 18:40 27 85 21.88 24.3 9 11 1013.1 4 46.9 44.6 88.9 235.4 263.6 916.0
26 18:30 27.3 85 22.24 24.6 7 11 1013.1 4 47.6 45.2 90.3 239.2 268.3 932.5
26 18:20 27.3 85 22.24 24.6 7 7 1013.1 4 47.6 45.2 90.3 239.2 268.3 932.5
26 18:10 27.4 85 22.37 24.7 6 6 1013.1 4 47.8 45.4 90.9 240.6 270.1 938.5
26 18:00 27.6 83 22.08 24.4 7 11 1013.1 4 47.2 44.7 89.2 236.1 264.7 919.8
26 17:50 27.7 83 22.2 24.5 7 9 1013.1 4 47.4 44.9 89.6 237.4 266.3 925.3
26 17:40 27.8 82 22.06 24.4 7 9 1013.1 4 47.1 44.5 88.8 235.2 263.7 916.3
26 17:30 27.9 81 21.91 24.3 7 9 1013.1 4 46.8 44.2 88.0 233.0 260.9 906.7
26 17:20 27.9 79 21.37 23.9 9 9 1013.1 4 45.7 43.1 85.4 226.0 252.4 877.1
26 17:10 27.9 80 21.64 24.1 7 9 1013.1 4 46.2 43.7 86.7 229.5 256.6 891.9
26 17:00 27.8 81 21.79 24.2 9 15 1013.1 4 46.6 44.0 87.5 231.7 259.4 901.3
26 16:50 27.8 81 21.79 24.2 13 15 1013.1 4 46.6 44.0 87.5 231.7 259.4 901.3
26 16:40 27.7 82 21.94 24.3 0 0 1013.1 4 46.9 44.3 88.4 234.0 262.1 910.8
26 16:30 27.4 84 22.1 24.5 6 11 1013.1 4 47.3 44.8 89.5 237.0 265.7 923.4
26 16:20 27.3 82 21.46 24 6 7 1013.1 4 45.9 43.6 86.5 229.0 255.8 889.1
26 16:10 27.2 86 22.38 24.6 9 11 1013.1 4 47.9 45.5 91.1 241.3 271.0 941.6
26 16:00 26.5 89 22.28 24.5 11 17 1013.1 4 47.8 45.7 91.5 242.3 271.9 944.8
26 15:50 26.3 91 22.53 24.7 13 17 1013.1 4 48.3 46.3 93.0 246.3 276.8 961.6
26 15:40 26.2 91 22.4 24.6 13 17 1013.1 4 48.1 46.1 92.5 244.9 275.0 955.5
26 15:30 26.1 88 21.54 24 20 28 1013.1 4 46.2 44.4 88.3 233.7 261.3 907.9
26 15:20 28.9 80 22.86 25.1 13 17 1013.1 2.6 48.7 45.5 91.4 242.2 272.5 947.0
26 15:10 28.2 82 22.55 24.8 11 13 1013.1 2.6 48.1 45.3 90.8 240.3 270.1 938.6
26 15:00 27.5 87 23.02 25.1 17 20 1013.1 2.6 49.2 46.6 94.0 248.9 280.3 974.0
26 14:50 28.1 81 22.15 24.5 11 13 1013.1 2.6 47.3 44.5 88.9 235.4 264.0 917.6
26 14:40 27.8 84 22.6 24.8 7 9 1013.1 2.6 48.3 45.6 91.5 242.3 272.3 946.4
26 14:30 27 88 22.65 24.8 7 11 1013.1 2.4 48.5 46.1 92.7 245.6 276.1 959.5
26 14:20 26.5 87 21.78 24.2 7 9 1013.1 2.4 46.7 44.7 89.0 235.6 263.8 916.5
26 14:10 27.2 81 21.08 23.7 9 11 1013.1 1.2 45.1 42.9 84.8 224.4 250.2 869.4
26 14:00 27.4 80 21.05 23.6 9 13 1013.1 1.2 45.0 42.8 84.4 223.4 249.0 865.4
26 13:50 27.2 86 22.38 24.6 9 11 1013.1 1.2 47.9 45.5 91.1 241.3 271.0 941.6
26 13:40 27 87 22.39 24.6 9 11 1013.1 1.2 47.9 45.6 91.4 242.1 271.9 944.7
26 13:30 26.7 87 22.02 24.4 13 19 1013.1 1.2 47.2 45.0 90.0 238.2 267.0 927.6
26 13:20 26.5 88 22.03 24.3 19 20 1013.1 1.2 47.2 45.2 90.3 238.9 267.8 930.6
26 13:10 26.5 86 21.53 24 15 19 1013.1 0.8 46.2 44.2 87.8 232.3 259.8 902.5
26 13:00 27.5 82 21.7 24.1 13 20 1013.1 0 46.4 44.0 87.4 231.5 259.0 899.9
26 12:50 27.8 83 22.33 24.6 11 13 1013.1 0 47.7 45.1 90.2 238.7 268.0 931.3
26 12:40 27.5 77 20.37 23.1 19 20 1013.1 0 43.6 41.4 81.0 214.5 238.1 827.6
26 12:30 28.1 77 21.06 23.7 17 26 1013.1 0 45.0 42.4 83.7 221.5 246.9 858.0
26 12:20 27.9 80 21.64 24.1 19 24 1013.1 0 46.2 43.7 86.7 229.5 256.6 891.9
26 12:10 28 80 21.76 24.2 11 15 1013.1 0 46.5 43.8 87.1 230.7 258.2 897.3
26 12:00 27.9 79 21.37 23.9 17 28 1013.1 0 45.7 43.1 85.4 226.0 252.4 877.1
26 11:50 28.2 77 21.17 23.8 17 19 1013.1 0 45.2 42.6 84.1 222.6 248.2 862.8
26 11:40 28.7 76 21.48 24 13 17 1013.1 0 45.8 42.9 85.0 225.0 251.4 873.8
26 11:30 28.6 75 21.08 23.9 11 17 1013.1 0 45.0 42.2 83.2 220.3 245.5 853.4
26 11:20 28.1 78 21.33 23.9 13 15 1013.1 0 45.6 42.9 85.0 224.9 251.1 872.6
26 11:10 28 78 21.21 23.8 11 15 1013.1 0 45.3 42.8 84.5 223.7 249.5 867.2
26 11:00 27.8 77 20.71 23.4 17 24 1013.1 0 44.3 41.9 82.3 217.9 242.4 842.5
26 10:50 27.5 78 20.64 23.3 20 24 1013.1 0 44.2 41.9 82.3 217.9 242.3 842.1
26 10:40 27.6 77 20.49 23.2 15 15 1013.1 0 43.8 41.6 81.5 215.7 239.7 832.9
26 10:30 27.6 79 21.02 23.6 13 17 1013.1 0 45.0 42.6 84.0 222.4 247.9 861.5
26 10:20 28 78 21.21 23.8 15 19 1013.1 0 45.3 42.8 84.5 223.7 249.5 867.2
26 10:10 27.7 84 22.47 24.7 13 17 1013.1 0 48.0 45.4 91.0 240.9 270.6 940.4
26 10:00 27.1 82 21.22 23.8 13 20 1013.1 0 45.4 43.3 85.6 226.5 252.7 878.2
26 09:50 27 82 21.1 23.7 11 20 1013.1 0 45.2 43.1 85.1 225.2 251.2 872.8
26 09:40 26.8 85 21.64 24.1 13 15 1013.1 0 46.4 44.2 88.0 232.9 260.5 905.0

Last Refresh: 27-Feb-2021 02:51:51

Most of the information presented on this site is sourced from the Bureau of Meteorology.  Copyright in all material sourced from the Bureau of Meteorology resides with the Commonwealth of Australia.